createdAt,value
2019-02-15T00:01:38.780Z,50.20
2019-02-15T00:04:09.759Z,46.13
2019-02-15T00:06:40.918Z,45.60
2019-02-15T00:09:11.916Z,47.57
2019-02-15T00:11:42.344Z,49.50
2019-02-15T00:14:12.763Z,46.37
2019-02-15T00:16:43.309Z,47.03
2019-02-15T00:19:38.515Z,47.53
2019-02-15T00:22:09.109Z,52.20
2019-02-15T00:24:39.866Z,50.03
2019-02-15T00:27:10.996Z,52.43
2019-02-15T00:29:41.529Z,46.17
2019-02-15T00:32:12.264Z,44.20
2019-02-15T00:34:42.854Z,47.27
2019-02-15T00:37:13.277Z,48.63
2019-02-15T00:39:43.904Z,47.93
2019-02-15T00:42:14.523Z,49.83
2019-02-15T00:44:44.933Z,52.27
2019-02-15T00:47:46.039Z,51.30
2019-02-15T00:50:41.354Z,49.60
2019-02-15T00:53:33.759Z,54.10
2019-02-15T00:56:28.679Z,49.07
2019-02-15T00:59:07.889Z,52.37
2019-02-15T01:01:55.514Z,48.57
2019-02-15T01:04:45.134Z,46.20
2019-02-15T01:07:33.114Z,47.87
2019-02-15T01:10:28.018Z,43.90
2019-02-15T01:13:17.189Z,43.57
2019-02-15T01:15:47.929Z,42.50
2019-02-15T01:18:18.964Z,44.83
2019-02-15T01:20:49.458Z,41.37
2019-02-15T01:23:20.244Z,45.50
2019-02-15T01:26:21.374Z,46.67
2019-02-15T01:29:03.109Z,50.00
2019-02-15T01:32:01.359Z,50.03
2019-02-15T01:34:56.642Z,45.10
2019-02-15T01:37:33.374Z,47.67
2019-02-15T01:40:26.019Z,50.07
2019-02-15T01:43:14.744Z,52.00
2019-02-15T01:45:56.299Z,48.10
2019-02-15T01:48:26.984Z,46.43
2019-02-15T01:50:57.414Z,52.90
2019-02-15T01:53:28.278Z,61.93
2019-02-15T01:55:59.124Z,48.70
2019-02-15T01:58:29.619Z,50.47
2019-02-15T02:01:00.418Z,55.57
2019-02-15T02:03:31.283Z,55.97
2019-02-15T02:06:01.683Z,66.53
2019-02-15T02:08:33.273Z,60.43
2019-02-15T02:11:03.783Z,57.17
2019-02-15T02:13:34.269Z,56.73
2019-02-15T02:16:04.829Z,54.83
2019-02-15T02:18:35.311Z,56.37
2019-02-15T02:21:05.668Z,54.60
2019-02-15T02:23:36.204Z,52.07
2019-02-15T02:26:06.858Z,56.10
2019-02-15T02:28:37.334Z,54.70
2019-02-15T02:31:07.950Z,53.73
2019-02-15T02:33:38.368Z,56.30
2019-02-15T02:36:08.899Z,60.40
2019-02-15T02:38:39.733Z,51.00
2019-02-15T02:41:10.289Z,55.83
2019-02-15T02:43:40.854Z,58.97
2019-02-15T02:46:11.783Z,52.27
2019-02-15T02:48:42.226Z,52.97
2019-02-15T02:51:12.570Z,49.50
2019-02-15T02:53:43.158Z,50.00
2019-02-15T02:56:13.969Z,48.20
2019-02-15T02:58:44.345Z,52.73
2019-02-15T03:01:15.035Z,54.40
2019-02-15T03:03:45.420Z,50.57
2019-02-15T03:06:16.004Z,56.07
2019-02-15T03:08:46.918Z,54.53
2019-02-15T03:11:17.564Z,52.07
2019-02-15T03:13:48.271Z,50.00
2019-02-15T03:16:19.299Z,45.57
2019-02-15T03:18:49.684Z,53.43
2019-02-15T03:21:20.114Z,50.77
2019-02-15T03:23:50.977Z,45.30
2019-02-15T03:26:21.414Z,48.60
2019-02-15T03:28:52.059Z,52.90
2019-02-15T03:31:22.523Z,50.33
2019-02-15T03:33:53.230Z,48.87
2019-02-15T03:36:45.315Z,51.07
2019-02-15T03:39:22.204Z,46.97
2019-02-15T03:41:52.795Z,47.90
2019-02-15T03:44:23.271Z,52.00
2019-02-15T03:46:53.950Z,60.63
2019-02-15T03:49:24.550Z,56.93
2019-02-15T03:51:54.992Z,52.20
2019-02-15T03:54:25.920Z,54.83
2019-02-15T03:56:56.515Z,61.33
2019-02-15T03:59:27.131Z,48.40
2019-02-15T04:01:57.588Z,49.57
2019-02-15T04:04:28.660Z,58.87
2019-02-15T04:06:59.257Z,55.90
2019-02-15T04:09:30.515Z,52.53
2019-02-15T04:12:01.520Z,56.20
2019-02-15T04:14:33.231Z,55.90
2019-02-15T04:17:04.284Z,54.07
2019-02-15T04:19:34.889Z,55.93
2019-02-15T04:22:05.395Z,56.83
2019-02-15T04:24:36.080Z,50.37
2019-02-15T04:27:06.624Z,56.40
2019-02-15T04:29:37.309Z,61.80
2019-02-15T04:32:07.741Z,61.33
2019-02-15T04:34:38.365Z,59.90
2019-02-15T04:37:09.050Z,57.63
2019-02-15T04:39:39.678Z,63.17
2019-02-15T04:42:10.587Z,60.43
2019-02-15T04:44:43.051Z,50.23
2019-02-15T04:47:13.579Z,47.10
2019-02-15T04:49:44.419Z,47.53
2019-02-15T04:52:15.015Z,49.20
2019-02-15T04:54:46.298Z,47.83
2019-02-15T04:57:17.079Z,42.27
2019-02-15T04:59:47.674Z,48.90
2019-02-15T05:02:18.203Z,43.10
2019-02-15T05:04:49.205Z,48.33
2019-02-15T05:07:19.999Z,47.53
2019-02-15T05:09:50.957Z,49.43
2019-02-15T05:12:21.694Z,46.80
2019-02-15T05:14:53.468Z,43.77
2019-02-15T05:17:24.206Z,47.73
2019-02-15T05:19:54.834Z,47.80
2019-02-15T05:22:25.519Z,46.10
2019-02-15T05:24:56.671Z,45.90
2019-02-15T05:27:27.508Z,47.10
2019-02-15T05:29:58.034Z,45.00
2019-02-15T05:32:28.464Z,42.50
2019-02-15T05:34:58.962Z,47.43
2019-02-15T05:37:29.914Z,42.73
2019-02-15T05:40:00.635Z,47.03
2019-02-15T05:42:31.138Z,48.93
2019-02-15T05:45:04.159Z,50.43
2019-02-15T05:47:34.243Z,46.13
2019-02-15T05:50:04.981Z,42.97
2019-02-15T05:52:35.735Z,48.80
2019-02-15T05:55:06.783Z,48.07
2019-02-15T05:57:37.373Z,46.67
2019-02-15T06:00:09.035Z,46.30
2019-02-15T06:02:39.849Z,51.07
2019-02-15T06:05:10.457Z,45.20
2019-02-15T06:07:41.082Z,46.30
2019-02-15T06:10:11.841Z,49.73
2019-02-15T06:12:43.029Z,52.80
2019-02-15T06:15:15.492Z,47.60
2019-02-15T06:17:45.961Z,51.70
2019-02-15T06:20:16.478Z,46.13
2019-02-15T06:22:47.239Z,50.87
2019-02-15T06:25:18.170Z,60.30
2019-02-15T06:27:48.864Z,49.73
2019-02-15T06:30:28.030Z,46.67
2019-02-15T06:32:59.401Z,51.40
2019-02-15T06:35:30.434Z,49.13
2019-02-15T06:38:01.043Z,50.20
2019-02-15T06:40:31.970Z,47.47
2019-02-15T06:43:03.434Z,51.03
2019-02-15T06:45:35.309Z,46.13
2019-02-15T06:48:06.394Z,50.90
2019-02-15T06:50:37.129Z,54.83
2019-02-15T06:53:09.866Z,50.60
2019-02-15T06:55:39.901Z,50.40
2019-02-15T06:58:10.557Z,46.40
2019-02-15T07:01:03.081Z,48.97
2019-02-15T07:03:55.339Z,48.17
2019-02-15T07:06:25.643Z,41.97
2019-02-15T07:08:56.345Z,45.63
2019-02-15T07:11:27.151Z,49.03
2019-02-15T07:13:59.579Z,47.27
2019-02-15T07:16:30.259Z,46.33
2019-02-15T07:19:01.219Z,42.13
2019-02-15T07:21:32.179Z,50.20
2019-02-15T07:24:03.349Z,50.67
2019-02-15T07:26:34.309Z,50.07
2019-02-15T07:29:05.046Z,51.33
2019-02-15T07:31:35.934Z,48.50
2019-02-15T07:34:09.379Z,50.93
2019-02-15T07:36:43.503Z,51.63
2019-02-15T07:39:14.289Z,52.50
2019-02-15T07:41:45.108Z,52.77
2019-02-15T07:44:15.779Z,49.47
2019-02-15T07:46:47.204Z,52.20
2019-02-15T07:49:26.440Z,50.67
2019-02-15T07:51:50.158Z,53.27
2019-02-15T07:54:22.649Z,51.50
2019-02-15T07:56:53.563Z,52.87
2019-02-15T07:59:24.414Z,49.67
2019-02-15T08:02:01.605Z,50.30
2019-02-15T08:04:28.579Z,47.37
2019-02-15T08:06:59.673Z,49.83
2019-02-15T08:09:30.401Z,50.60
2019-02-15T08:12:01.168Z,53.00
2019-02-15T08:18:04.534Z,53.23
2019-02-15T08:20:35.394Z,55.30
2019-02-15T08:23:06.409Z,64.30
2019-02-15T08:25:37.329Z,50.93
2019-02-15T08:28:07.974Z,54.13
2019-02-15T08:30:38.607Z,54.33
2019-02-15T08:33:09.559Z,57.97
2019-02-15T08:35:40.303Z,46.80
2019-02-15T08:38:11.214Z,57.30
2019-02-15T08:40:41.714Z,50.27
2019-02-15T08:43:12.489Z,54.33
2019-02-15T08:45:43.184Z,47.33
2019-02-15T08:48:14.169Z,46.97
2019-02-15T08:50:44.979Z,54.97
2019-02-15T08:53:15.505Z,52.93
2019-02-15T08:55:46.324Z,49.13
2019-02-15T08:58:17.049Z,47.60
2019-02-15T09:00:47.595Z,50.30
2019-02-15T09:03:18.314Z,48.13
2019-02-15T09:05:49.030Z,53.90
2019-02-15T09:08:19.790Z,46.67
2019-02-15T09:10:50.408Z,49.23
2019-02-15T09:13:21.147Z,45.43
2019-02-15T09:15:52.038Z,45.00
2019-02-15T09:18:22.869Z,47.17
2019-02-15T09:20:53.594Z,46.10
2019-02-15T09:23:24.204Z,46.80
2019-02-15T09:25:54.943Z,41.70
2019-02-15T09:28:31.219Z,46.50
2019-02-15T09:31:04.389Z,45.87
2019-02-15T09:33:34.879Z,48.77
2019-02-15T09:36:05.359Z,44.13
2019-02-15T09:38:36.524Z,43.30
2019-02-15T09:41:07.095Z,40.00
2019-02-15T09:43:37.948Z,43.17
2019-02-15T09:46:08.813Z,42.73
2019-02-15T09:48:39.403Z,41.43
2019-02-15T09:51:10.935Z,40.20
2019-02-15T09:53:41.902Z,40.83
2019-02-15T09:56:13.014Z,37.67
2019-02-15T09:58:43.829Z,40.57
2019-02-15T10:01:14.379Z,45.20
2019-02-15T10:03:48.097Z,39.07
2019-02-15T10:06:18.740Z,37.80
2019-02-15T10:08:49.544Z,41.57
2019-02-15T10:11:20.793Z,40.10
2019-02-15T10:13:51.459Z,44.67
2019-02-15T10:16:28.751Z,43.17
2019-02-15T10:18:54.389Z,38.43
2019-02-15T10:21:24.754Z,41.17
2019-02-15T10:23:55.156Z,38.53
2019-02-15T10:26:25.993Z,39.80
2019-02-15T10:28:56.774Z,37.67
2019-02-15T10:31:27.513Z,42.60
2019-02-15T10:33:58.339Z,42.37
2019-02-15T10:36:29.154Z,38.17
2019-02-15T10:38:59.839Z,40.37
2019-02-15T10:41:30.958Z,41.17
2019-02-15T10:44:01.425Z,39.67
2019-02-15T10:46:37.620Z,42.60
2019-02-15T10:49:04.313Z,41.33
2019-02-15T10:51:34.975Z,43.20
2019-02-15T10:54:05.910Z,47.60
2019-02-15T10:56:36.879Z,40.90
2019-02-15T10:59:07.569Z,43.00
2019-02-15T11:01:38.284Z,45.33
2019-02-15T11:04:09.012Z,41.57
2019-02-15T11:06:39.575Z,42.57
2019-02-15T11:09:13.414Z,44.30
2019-02-15T11:11:43.948Z,41.73
2019-02-15T11:14:14.514Z,40.60
2019-02-15T11:16:47.327Z,42.10
2019-02-15T11:19:17.524Z,44.47
2019-02-15T11:21:48.079Z,42.43
2019-02-15T11:24:18.580Z,46.37
2019-02-15T11:26:48.979Z,43.50
2019-02-15T11:29:19.796Z,51.33
2019-02-15T11:31:50.592Z,45.77
2019-02-15T11:34:21.044Z,41.27
2019-02-15T11:36:51.689Z,41.13
2019-02-15T11:39:23.554Z,43.00
2019-02-15T11:41:54.549Z,42.33
2019-02-15T11:44:25.139Z,44.77
2019-02-15T11:46:56.872Z,41.07
2019-02-15T11:49:27.650Z,43.77
2019-02-15T11:51:58.274Z,36.43
2019-02-15T11:54:29.154Z,38.13
2019-02-15T11:56:59.899Z,43.47
2019-02-15T11:59:32.486Z,43.13
2019-02-15T12:02:06.275Z,41.00
2019-02-15T12:04:34.763Z,44.03
2019-02-15T12:07:05.303Z,41.50
2019-02-15T12:09:35.983Z,46.40
2019-02-15T12:12:10.679Z,37.53
2019-02-15T12:14:38.614Z,38.47
2019-02-15T12:17:09.306Z,42.23
2019-02-15T12:19:39.874Z,41.57
2019-02-15T12:22:10.439Z,45.17
2019-02-15T12:24:41.223Z,42.27
2019-02-15T12:27:11.934Z,43.83
2019-02-15T12:29:42.414Z,44.23
2019-02-15T12:32:12.991Z,41.57
2019-02-15T12:34:43.553Z,46.50
2019-02-15T12:37:14.654Z,44.50
2019-02-15T12:39:45.369Z,48.70
2019-02-15T12:42:15.894Z,47.93
2019-02-15T12:44:46.361Z,46.13
2019-02-15T12:47:17.294Z,42.97
2019-02-15T12:49:48.059Z,51.87
2019-02-15T12:52:18.659Z,55.47
2019-02-15T12:54:49.359Z,49.07
2019-02-15T12:57:19.772Z,50.37
2019-02-15T12:59:50.226Z,50.37
2019-02-15T13:02:20.799Z,55.17
2019-02-15T13:04:51.310Z,49.97
2019-02-15T13:07:21.759Z,53.77
2019-02-15T13:09:52.779Z,52.17
2019-02-15T13:12:23.134Z,54.43
2019-02-15T13:14:53.610Z,56.47
2019-02-15T13:17:25.123Z,56.50
2019-02-15T13:19:55.742Z,56.87
2019-02-15T13:22:26.243Z,55.93
2019-02-15T13:24:57.230Z,55.77
2019-02-15T13:27:27.834Z,54.87
2019-02-15T13:29:58.230Z,58.67
2019-02-15T13:32:28.900Z,58.57
2019-02-15T13:34:59.299Z,55.63
2019-02-15T13:37:29.770Z,60.10
2019-02-15T13:40:00.481Z,57.93
2019-02-15T13:42:31.019Z,57.20
2019-02-15T13:45:01.524Z,58.50
2019-02-15T13:47:34.468Z,50.50
2019-02-15T13:50:04.309Z,53.27
2019-02-15T13:52:34.949Z,52.17
2019-02-15T13:55:05.728Z,57.93
2019-02-15T13:57:36.279Z,56.90
2019-02-15T14:00:07.424Z,54.50
2019-02-15T14:02:38.009Z,58.67
2019-02-15T14:05:09.769Z,61.97
2019-02-15T14:07:40.835Z,57.77
2019-02-15T14:10:12.124Z,53.37
2019-02-15T14:12:42.857Z,60.43
2019-02-15T14:15:13.738Z,53.87
2019-02-15T14:17:47.709Z,55.07
2019-02-15T14:20:16.869Z,55.63
2019-02-15T14:22:47.645Z,53.97
2019-02-15T14:25:18.401Z,53.73
2019-02-15T14:27:49.099Z,55.57
2019-02-15T14:30:19.669Z,55.20
2019-02-15T14:32:50.309Z,56.37
2019-02-15T14:35:21.145Z,54.67
2019-02-15T14:37:51.894Z,56.97
2019-02-15T14:40:22.439Z,53.83
2019-02-15T14:42:53.270Z,53.50
2019-02-15T14:45:23.909Z,56.10
2019-02-15T14:47:55.389Z,54.77
2019-02-15T14:50:26.840Z,54.53
2019-02-15T14:52:57.379Z,57.33
2019-02-15T14:55:27.989Z,56.53
2019-02-15T14:57:58.504Z,59.90
2019-02-15T15:00:29.163Z,57.17
2019-02-15T15:02:59.574Z,54.93
2019-02-15T15:05:30.299Z,50.23
2019-02-15T15:08:00.876Z,53.70
2019-02-15T15:10:31.475Z,57.03
2019-02-15T15:13:02.045Z,55.73
2019-02-15T15:15:32.469Z,54.67
2019-02-15T15:18:12.719Z,54.47
2019-02-15T15:20:35.779Z,53.70
2019-02-15T15:23:06.479Z,51.73
2019-02-15T15:25:37.384Z,52.83
2019-02-15T15:28:07.981Z,49.97
2019-02-15T15:30:38.534Z,51.37
2019-02-15T15:33:09.189Z,54.90
2019-02-15T15:35:39.987Z,54.97
2019-02-15T15:38:10.764Z,56.43
2019-02-15T15:40:41.696Z,54.47
2019-02-15T15:43:13.096Z,53.80
2019-02-15T15:45:43.917Z,58.37
2019-02-15T15:48:22.456Z,57.13
2019-02-15T15:50:46.986Z,58.57
2019-02-15T15:53:17.594Z,54.00
2019-02-15T15:55:48.395Z,58.53
2019-02-15T15:58:19.299Z,57.30
2019-02-15T16:00:50.194Z,60.57
2019-02-15T16:03:20.707Z,60.13
2019-02-15T16:05:51.300Z,60.30
2019-02-15T16:08:21.974Z,60.03
2019-02-15T16:10:52.544Z,59.00
2019-02-15T16:13:23.026Z,60.13
2019-02-15T16:15:53.979Z,55.23
2019-02-15T16:18:33.026Z,55.23
2019-02-15T16:20:57.119Z,60.73
2019-02-15T16:23:28.068Z,55.63
2019-02-15T16:25:58.704Z,63.07
2019-02-15T16:28:29.624Z,57.57
2019-02-15T16:31:00.241Z,61.33
2019-02-15T16:33:31.354Z,59.80
2019-02-15T16:36:02.440Z,56.67
2019-02-15T16:38:33.284Z,58.63
2019-02-15T16:41:04.126Z,61.87
2019-02-15T16:43:44.829Z,65.13
2019-02-15T16:46:17.855Z,64.30
2019-02-15T16:48:49.514Z,61.63
2019-02-15T16:51:21.654Z,62.17
2019-02-15T16:53:55.800Z,62.17
2019-02-15T16:56:26.555Z,61.73
2019-02-15T16:59:02.024Z,58.93
2019-02-15T17:01:41.835Z,62.97
2019-02-15T17:04:35.204Z,68.73
2019-02-15T17:07:43.379Z,63.73
2019-02-15T17:10:49.580Z,68.50
2019-02-15T17:13:23.025Z,61.57
2019-02-15T17:16:26.779Z,66.37
2019-02-15T17:19:08.134Z,59.83
2019-02-15T17:21:46.954Z,62.97
2019-02-15T17:24:31.704Z,64.00
2019-02-15T17:27:17.045Z,63.60
2019-02-15T17:30:00.979Z,57.57
2019-02-15T17:32:38.674Z,61.90
2019-02-15T17:35:23.499Z,61.60
2019-02-15T17:38:05.934Z,58.00
2019-02-15T17:40:51.634Z,60.67
2019-02-15T17:43:37.524Z,60.30
2019-02-15T17:46:14.265Z,61.83
2019-02-15T17:51:50.514Z,62.50
2019-02-15T17:54:28.835Z,60.70
2019-02-15T17:57:07.635Z,60.63
2019-02-15T17:59:57.419Z,65.77
2019-02-15T18:02:49.621Z,61.20
2019-02-15T18:05:28.834Z,64.03
2019-02-15T18:08:03.649Z,59.57
2019-02-15T18:10:38.150Z,60.33
2019-02-15T18:13:19.804Z,64.93
2019-02-15T18:15:55.960Z,61.97
2019-02-15T18:18:39.332Z,61.03
2019-02-15T18:21:20.753Z,61.20
2019-02-15T18:24:00.534Z,66.40
2019-02-15T18:26:43.220Z,65.13
2019-02-15T18:29:22.945Z,61.80
2019-02-15T18:32:21.129Z,63.00
2019-02-15T18:35:16.084Z,63.73
2019-02-15T18:38:00.306Z,67.33
2019-02-15T18:41:00.119Z,63.17
2019-02-15T18:43:45.231Z,65.60
2019-02-15T18:46:32.754Z,61.93
2019-02-15T18:49:19.664Z,59.70
2019-02-15T18:52:01.110Z,64.97
2019-02-15T18:54:42.734Z,71.03
2019-02-15T18:57:36.847Z,66.87
2019-02-15T19:00:21.071Z,67.53
2019-02-15T19:03:02.054Z,71.10
2019-02-15T19:05:45.724Z,70.20
2019-02-15T19:08:32.280Z,72.97
2019-02-15T19:11:08.571Z,69.70
2019-02-15T19:13:44.744Z,66.87
2019-02-15T19:16:26.450Z,74.60
2019-02-15T19:19:13.690Z,71.63
2019-02-15T19:21:55.496Z,76.50
2019-02-15T19:24:39.649Z,87.63
2019-02-15T19:27:18.606Z,72.00
2019-02-15T19:30:01.484Z,73.27
2019-02-15T19:33:03.130Z,72.70
2019-02-15T19:35:57.184Z,72.17
2019-02-15T19:38:48.489Z,69.80
2019-02-15T19:41:40.169Z,71.70
2019-02-15T19:44:12.669Z,71.17
2019-02-15T19:47:02.249Z,71.13
2019-02-15T19:49:39.815Z,65.37
2019-02-15T19:52:22.594Z,70.10
2019-02-15T19:55:16.474Z,74.03
2019-02-15T19:57:53.424Z,69.27
2019-02-15T20:00:36.494Z,74.43
2019-02-15T20:03:19.844Z,71.63
2019-02-15T20:05:56.994Z,66.37
2019-02-15T20:08:55.622Z,72.33
2019-02-15T20:11:36.509Z,74.60
2019-02-15T20:14:36.994Z,73.30
2019-02-15T20:17:21.300Z,69.23
2019-02-15T20:26:11.070Z,67.10
2019-02-15T20:28:58.573Z,72.37
2019-02-15T20:31:41.204Z,67.50
2019-02-15T20:34:45.391Z,66.37
2019-02-15T20:37:36.539Z,68.97
2019-02-15T20:40:17.089Z,66.70
2019-02-15T20:43:00.021Z,65.13
2019-02-15T20:46:00.484Z,73.87
2019-02-15T20:48:49.046Z,67.50
2019-02-15T20:51:36.483Z,69.77
2019-02-15T20:54:42.564Z,69.10
2019-02-15T20:57:33.759Z,73.77
2019-02-15T21:00:18.988Z,64.00
2019-02-15T21:03:00.443Z,67.10
2019-02-15T21:05:39.433Z,67.53
2019-02-15T21:08:21.064Z,69.97
2019-02-15T21:11:12.515Z,69.13
2019-02-15T21:13:48.860Z,69.77
2019-02-15T21:16:30.759Z,74.27
2019-02-15T21:19:23.791Z,71.13
2019-02-15T21:22:03.155Z,66.53
2019-02-15T21:24:45.530Z,69.30
2019-02-15T21:27:23.879Z,70.70
2019-02-15T21:30:04.869Z,72.57
2019-02-15T21:33:01.004Z,78.30
2019-02-15T21:35:40.031Z,69.57
2019-02-15T21:38:13.923Z,74.40
2019-02-15T21:40:46.764Z,77.47
2019-02-15T21:43:17.094Z,73.17
2019-02-15T21:45:48.046Z,71.10
2019-02-15T21:48:18.982Z,70.57
2019-02-15T21:50:52.514Z,72.27
2019-02-15T21:53:24.914Z,72.57
2019-02-15T21:55:56.530Z,74.10
2019-02-15T21:58:27.604Z,70.23
2019-02-15T22:00:58.559Z,70.03
2019-02-15T22:03:29.574Z,71.33
2019-02-15T22:06:00.334Z,72.13
2019-02-15T22:08:31.104Z,74.87
2019-02-15T22:11:02.049Z,71.23
2019-02-15T22:13:34.820Z,72.23
2019-02-15T22:16:05.244Z,69.23
2019-02-15T22:18:36.014Z,78.23
2019-02-15T22:21:06.574Z,75.70
2019-02-15T22:23:37.654Z,72.90
2019-02-15T22:26:08.349Z,66.53
2019-02-15T22:28:39.089Z,75.33
2019-02-15T22:31:11.886Z,72.97
2019-02-15T22:33:42.749Z,74.73
2019-02-15T22:36:13.689Z,76.40
2019-02-15T22:38:44.684Z,71.93
2019-02-15T22:41:19.394Z,73.27
2019-02-15T22:43:50.404Z,71.80
2019-02-15T22:46:21.169Z,66.40
2019-02-15T22:48:51.854Z,69.30
2019-02-15T22:51:22.614Z,67.77
2019-02-15T22:53:53.371Z,64.30
2019-02-15T22:56:24.309Z,69.37
2019-02-15T22:58:54.933Z,64.67
2019-02-15T23:01:25.838Z,68.30
2019-02-15T23:03:56.634Z,66.90
2019-02-15T23:06:27.474Z,69.90
2019-02-15T23:08:58.154Z,70.03
2019-02-15T23:11:28.790Z,66.77
2019-02-15T23:13:59.474Z,69.87
2019-02-15T23:16:30.219Z,64.63
2019-02-15T23:19:01.139Z,68.73
2019-02-15T23:21:31.724Z,76.93
2019-02-15T23:24:02.167Z,72.20
2019-02-15T23:26:32.690Z,75.50
2019-02-15T23:29:03.641Z,72.90
2019-02-15T23:31:34.279Z,69.63
2019-02-15T23:34:05.230Z,68.60
2019-02-15T23:36:35.854Z,74.83
2019-02-15T23:39:07.024Z,74.73
2019-02-15T23:41:37.779Z,76.43
2019-02-15T23:44:08.774Z,75.17
2019-02-15T23:46:39.403Z,72.40
2019-02-15T23:49:10.019Z,77.30
2019-02-15T23:51:40.819Z,73.17
2019-02-15T23:54:11.354Z,65.73
2019-02-15T23:56:41.950Z,69.00
2019-02-15T23:59:12.664Z,78.57
